createdAt,value
2019-02-26T00:00:12.781Z,99.99
2019-02-26T00:01:21.020Z,99.99
2019-02-26T00:02:30.145Z,99.99
2019-02-26T00:03:36.473Z,99.99
2019-02-26T00:04:44.536Z,99.99
2019-02-26T00:05:54.258Z,99.99
2019-02-26T00:07:00.666Z,99.99
2019-02-26T00:08:08.704Z,99.99
2019-02-26T00:09:18.723Z,99.99
2019-02-26T00:10:26.666Z,99.99
2019-02-26T00:11:33.301Z,99.99
2019-02-26T00:12:40.940Z,99.99
2019-02-26T00:13:50.282Z,99.99
2019-02-26T00:14:59.181Z,99.99
2019-02-26T00:16:07.554Z,99.99
2019-02-26T00:17:14.848Z,99.99
2019-02-26T00:18:21.424Z,99.99
2019-02-26T00:19:29.296Z,99.99
2019-02-26T00:20:39.038Z,99.99
2019-02-26T00:21:47.085Z,99.99
2019-02-26T00:22:55.165Z,99.99
2019-02-26T00:24:01.568Z,99.99
2019-02-26T00:25:10.349Z,99.99
2019-02-26T00:26:18.484Z,99.99
2019-02-26T00:27:27.797Z,99.99
2019-02-26T00:28:34.156Z,99.99
2019-02-26T00:29:41.827Z,99.99
2019-02-26T00:30:49.881Z,99.99
2019-02-26T00:31:57.924Z,99.99
2019-02-26T00:33:05.996Z,99.99
2019-02-26T00:34:15.963Z,99.99
2019-02-26T00:35:23.412Z,99.99
2019-02-26T00:36:31.476Z,99.99
2019-02-26T00:37:38.214Z,99.99
2019-02-26T00:38:46.293Z,99.99
2019-02-26T00:39:56.193Z,99.99
2019-02-26T00:41:03.828Z,99.99
2019-02-26T00:42:10.463Z,99.99
2019-02-26T00:43:21.083Z,99.99
2019-02-26T00:44:27.422Z,99.99
2019-02-26T00:45:36.309Z,99.99
2019-02-26T00:46:42.694Z,99.99
2019-02-26T00:47:50.758Z,99.99
2019-02-26T00:49:00.456Z,99.99
2019-02-26T00:50:07.292Z,99.99
2019-02-26T00:51:16.049Z,99.99
2019-02-26T00:52:22.994Z,99.99
2019-02-26T00:53:32.595Z,99.99
2019-02-26T00:54:39.101Z,99.99
2019-02-26T00:55:47.152Z,99.99
2019-02-26T00:56:57.122Z,99.99
2019-02-26T00:58:05.352Z,99.99
2019-02-26T00:59:11.329Z,99.99
2019-02-26T01:00:19.443Z,99.99
2019-02-26T01:01:27.465Z,99.99
2019-02-26T01:02:35.524Z,99.99
2019-02-26T01:03:45.190Z,99.99
2019-02-26T01:04:51.621Z,99.99
2019-02-26T01:06:01.077Z,99.99
2019-02-26T01:07:07.727Z,99.99
2019-02-26T01:08:17.434Z,99.99
2019-02-26T01:09:25.143Z,99.99
2019-02-26T01:10:31.935Z,99.99
2019-02-26T01:11:39.989Z,99.99
2019-02-26T01:12:48.011Z,99.99
2019-02-26T01:13:57.334Z,99.99
2019-02-26T01:15:04.917Z,99.99
2019-02-26T01:16:12.230Z,99.99
2019-02-26T01:17:20.270Z,99.99
2019-02-26T01:18:28.957Z,99.99
2019-02-26T01:19:38.181Z,99.99
2019-02-26T01:20:48.252Z,99.99
2019-02-26T01:21:52.500Z,99.99
2019-02-26T01:23:00.553Z,99.99
2019-02-26T01:24:08.674Z,99.99
2019-02-26T01:25:17.871Z,99.99
2019-02-26T01:26:27.279Z,99.99
2019-02-26T01:27:32.802Z,99.99
2019-02-26T01:28:44.040Z,99.99
2019-02-26T01:29:51.088Z,99.99
2019-02-26T01:30:57.921Z,99.99
2019-02-26T01:32:08.832Z,99.99
2019-02-26T01:33:13.080Z,99.99
2019-02-26T01:34:21.146Z,99.99
2019-02-26T01:35:30.641Z,99.99
2019-02-26T01:36:38.213Z,99.99
2019-02-26T01:37:45.323Z,99.99
2019-02-26T01:38:53.377Z,99.99
2019-02-26T01:40:01.442Z,99.99
2019-02-26T01:41:11.221Z,99.99
2019-02-26T01:42:19.303Z,99.99
2019-02-26T01:43:25.615Z,99.99
2019-02-26T01:44:35.425Z,99.99
2019-02-26T01:45:41.735Z,99.99
2019-02-26T01:46:49.805Z,99.99
2019-02-26T01:47:57.843Z,99.99
2019-02-26T01:49:05.915Z,99.99
2019-02-26T01:50:16.013Z,99.99
2019-02-26T01:51:23.637Z,99.99
2019-02-26T01:52:30.083Z,99.99
2019-02-26T01:53:38.114Z,99.99
2019-02-26T01:54:46.204Z,99.99
2019-02-26T01:55:54.255Z,99.99
2019-02-26T01:57:02.324Z,99.99
2019-02-26T01:58:10.368Z,99.99
2019-02-26T01:59:19.088Z,99.99
2019-02-26T02:00:26.495Z,99.99
2019-02-26T02:01:34.553Z,99.99
2019-02-26T02:02:42.602Z,99.99
2019-02-26T02:03:51.283Z,99.99
2019-02-26T02:04:59.662Z,99.99
2019-02-26T02:06:08.404Z,99.99
2019-02-26T02:07:14.836Z,99.99
2019-02-26T02:08:24.761Z,99.99
2019-02-26T02:09:30.960Z,99.99
2019-02-26T02:10:39.013Z,99.99
2019-02-26T02:11:47.079Z,99.99
2019-02-26T02:12:57.425Z,99.99
2019-02-26T02:14:04.203Z,99.99
2019-02-26T02:15:12.343Z,99.99
2019-02-26T02:16:19.307Z,99.99
2019-02-26T02:17:28.758Z,99.99
2019-02-26T02:18:35.426Z,99.99
2019-02-26T02:19:43.487Z,99.99
2019-02-26T02:20:51.538Z,99.99
2019-02-26T02:21:59.610Z,99.99
2019-02-26T02:23:07.657Z,99.99
2019-02-26T02:24:17.453Z,99.99
2019-02-26T02:25:23.800Z,99.99
2019-02-26T02:26:31.832Z,99.99
2019-02-26T02:27:39.885Z,99.99
2019-02-26T02:28:47.927Z,99.99
2019-02-26T02:29:57.633Z,99.99
2019-02-26T02:31:04.060Z,99.99
2019-02-26T02:32:12.122Z,99.99
2019-02-26T02:33:24.013Z,99.99
2019-02-26T02:34:29.471Z,99.99
2019-02-26T02:35:36.297Z,99.99
2019-02-26T02:36:44.341Z,99.99
2019-02-26T02:37:53.496Z,99.99
2019-02-26T02:39:00.455Z,99.99
2019-02-26T02:40:08.523Z,99.99
2019-02-26T02:41:16.589Z,99.99
2019-02-26T02:42:24.644Z,99.99
2019-02-26T02:43:32.693Z,99.99
2019-02-26T02:44:42.111Z,99.99
2019-02-26T02:45:49.870Z,99.99
2019-02-26T02:46:58.485Z,99.99
2019-02-26T02:48:06.205Z,99.99
2019-02-26T02:49:15.041Z,99.99
2019-02-26T02:50:21.045Z,99.99
2019-02-26T02:51:31.328Z,99.99
2019-02-26T02:52:37.907Z,99.99
2019-02-26T02:53:47.348Z,99.99
2019-02-26T02:54:53.270Z,99.99
2019-02-26T02:56:03.520Z,99.99
2019-02-26T02:57:09.960Z,99.99
2019-02-26T02:58:18.646Z,99.99
2019-02-26T02:59:25.507Z,99.99
2019-02-26T03:00:34.444Z,99.99
2019-02-26T03:01:43.005Z,99.99
2019-02-26T03:02:50.710Z,99.99
2019-02-26T03:03:58.949Z,99.99
2019-02-26T03:05:05.784Z,99.99
2019-02-26T03:06:13.850Z,99.99
2019-02-26T03:07:23.487Z,99.99
2019-02-26T03:08:29.979Z,99.99
2019-02-26T03:09:40.448Z,99.99
2019-02-26T03:10:46.087Z,99.99
2019-02-26T03:11:55.009Z,99.99
2019-02-26T03:13:02.933Z,99.99
2019-02-26T03:14:10.932Z,99.99
2019-02-26T03:15:18.309Z,99.99
2019-02-26T03:16:27.130Z,99.99
2019-02-26T03:17:34.421Z,99.99
2019-02-26T03:18:42.481Z,99.99
2019-02-26T03:19:50.548Z,99.99
2019-02-26T03:20:59.863Z,99.99
2019-02-26T03:22:07.213Z,99.99
2019-02-26T03:23:16.725Z,99.99
2019-02-26T03:24:25.410Z,99.99
2019-02-26T03:25:30.837Z,99.99
2019-02-26T03:26:38.905Z,99.99
2019-02-26T03:27:46.955Z,99.99
2019-02-26T03:28:55.015Z,99.99
2019-02-26T03:30:03.061Z,99.99
2019-02-26T03:31:11.152Z,99.99
2019-02-26T03:32:19.202Z,99.99
2019-02-26T03:33:27.239Z,99.99
2019-02-26T03:34:35.302Z,99.99
2019-02-26T03:35:43.371Z,99.99
2019-02-26T03:36:51.418Z,99.99
2019-02-26T03:38:01.099Z,99.99
2019-02-26T03:39:07.516Z,99.99
2019-02-26T03:40:15.588Z,99.99
2019-02-26T03:41:26.081Z,99.99
2019-02-26T03:42:33.348Z,99.99
2019-02-26T03:43:41.631Z,99.99
2019-02-26T03:44:47.799Z,99.99
2019-02-26T03:45:55.880Z,99.99
2019-02-26T03:47:03.936Z,99.99
2019-02-26T03:48:12.008Z,99.99
2019-02-26T03:49:20.044Z,99.99
2019-02-26T03:50:28.083Z,99.99
2019-02-26T03:51:39.069Z,99.99
2019-02-26T03:52:44.238Z,99.99
2019-02-26T03:53:52.289Z,99.99
2019-02-26T03:55:02.849Z,99.99
2019-02-26T03:56:11.707Z,99.99
2019-02-26T03:57:17.278Z,99.99
2019-02-26T03:58:24.521Z,99.99
2019-02-26T03:59:32.585Z,99.99
2019-02-26T04:00:41.610Z,99.99
2019-02-26T04:01:48.696Z,99.99
2019-02-26T04:02:56.764Z,99.99
2019-02-26T04:04:05.500Z,99.99
2019-02-26T04:05:12.873Z,99.99
2019-02-26T04:06:20.933Z,99.99
2019-02-26T04:07:30.248Z,99.99
2019-02-26T04:08:37.042Z,99.99
2019-02-26T04:09:46.723Z,99.99
2019-02-26T04:10:55.420Z,99.99
2019-02-26T04:12:01.218Z,99.99
2019-02-26T04:13:09.280Z,99.99
2019-02-26T04:14:17.966Z,99.99
2019-02-26T04:15:27.806Z,99.99
2019-02-26T04:16:35.247Z,99.99
2019-02-26T04:17:42.214Z,99.99
2019-02-26T04:18:51.411Z,99.99
2019-02-26T04:19:57.604Z,99.99
2019-02-26T04:21:06.571Z,99.99
2019-02-26T04:22:15.167Z,99.99
2019-02-26T04:23:21.973Z,99.99
2019-02-26T04:24:32.474Z,99.99
2019-02-26T04:25:37.918Z,99.99
2019-02-26T04:26:46.009Z,99.99
2019-02-26T04:27:56.341Z,99.99
2019-02-26T04:29:02.096Z,99.99
2019-02-26T04:30:10.983Z,99.99
2019-02-26T04:31:18.186Z,99.99
2019-02-26T04:32:26.278Z,99.99
2019-02-26T04:33:35.976Z,99.99
2019-02-26T04:34:42.384Z,99.99
2019-02-26T04:35:52.556Z,99.99
2019-02-26T04:36:59.106Z,99.99
2019-02-26T04:38:06.580Z,99.99
2019-02-26T04:39:16.411Z,99.99
2019-02-26T04:40:22.683Z,99.99
2019-02-26T04:41:32.493Z,99.99
2019-02-26T04:42:40.869Z,99.99
2019-02-26T04:43:46.853Z,99.99
2019-02-26T04:44:55.944Z,99.99
2019-02-26T04:46:05.039Z,99.99
2019-02-26T04:47:11.036Z,99.99
2019-02-26T04:48:20.074Z,99.99
2019-02-26T04:49:27.979Z,99.99
2019-02-26T04:50:36.143Z,99.99
2019-02-26T04:51:44.921Z,99.99
2019-02-26T04:52:51.323Z,99.99
2019-02-26T04:54:00.219Z,99.99
2019-02-26T04:55:07.408Z,99.99
2019-02-26T04:56:15.494Z,99.99
2019-02-26T04:57:23.547Z,99.99
2019-02-26T04:58:31.605Z,99.99
2019-02-26T04:59:41.032Z,99.99
2019-02-26T05:00:47.697Z,99.99
2019-02-26T05:01:57.445Z,99.99
2019-02-26T05:03:05.018Z,99.99
2019-02-26T05:04:11.900Z,99.99
2019-02-26T05:05:22.371Z,99.99
2019-02-26T05:06:27.981Z,99.99
2019-02-26T05:07:37.768Z,99.99
2019-02-26T05:08:44.136Z,99.99
2019-02-26T05:09:53.733Z,99.99
2019-02-26T05:11:00.254Z,99.99
2019-02-26T05:12:08.282Z,99.99
2019-02-26T05:13:16.357Z,99.99
2019-02-26T05:14:24.426Z,99.99
2019-02-26T05:15:33.208Z,99.99
2019-02-26T05:16:40.566Z,99.99
2019-02-26T05:17:48.588Z,99.99
2019-02-26T05:18:58.438Z,99.99
2019-02-26T05:20:07.096Z,99.99
2019-02-26T05:21:13.054Z,99.99
2019-02-26T05:22:22.581Z,99.99
2019-02-26T05:23:31.094Z,99.99
2019-02-26T05:24:38.546Z,99.99
2019-02-26T05:25:45.045Z,99.99
2019-02-26T05:26:53.076Z,99.99
2019-02-26T05:28:03.654Z,99.99
2019-02-26T05:29:09.165Z,99.99
2019-02-26T05:30:19.497Z,99.99
2019-02-26T05:31:25.287Z,99.99
2019-02-26T05:32:35.334Z,99.99
2019-02-26T05:33:41.406Z,99.99
2019-02-26T05:34:50.806Z,99.99
2019-02-26T05:35:57.484Z,99.99
2019-02-26T05:37:07.965Z,99.99
2019-02-26T05:38:14.795Z,99.99
2019-02-26T05:39:23.503Z,99.99
2019-02-26T05:40:29.758Z,99.99
2019-02-26T05:41:40.243Z,99.99
2019-02-26T05:42:46.152Z,99.99
2019-02-26T05:43:55.991Z,99.99
2019-02-26T05:45:03.583Z,99.99
2019-02-26T05:46:10.081Z,99.99
2019-02-26T05:47:19.146Z,99.99
2019-02-26T05:48:26.159Z,99.99
2019-02-26T05:49:37.562Z,99.99
2019-02-26T05:50:44.650Z,99.99
2019-02-26T05:51:50.333Z,99.99
2019-02-26T05:53:01.556Z,99.99
2019-02-26T05:54:08.005Z,99.99
2019-02-26T05:55:16.749Z,99.99
2019-02-26T05:56:22.878Z,99.99
2019-02-26T05:57:32.461Z,99.99
2019-02-26T05:58:39.264Z,99.99
2019-02-26T05:59:46.725Z,99.99
2019-02-26T06:00:54.795Z,99.99
2019-02-26T06:02:02.874Z,99.99
2019-02-26T06:03:12.709Z,99.99
2019-02-26T06:04:20.549Z,99.99
2019-02-26T06:05:27.034Z,99.99
2019-02-26T06:06:35.096Z,99.99
2019-02-26T06:07:43.153Z,99.99
2019-02-26T06:08:51.196Z,99.99
2019-02-26T06:09:59.326Z,99.99
2019-02-26T06:11:07.315Z,99.99
2019-02-26T06:12:15.374Z,99.99
2019-02-26T06:13:23.431Z,99.99
2019-02-26T06:14:33.091Z,99.99
2019-02-26T06:15:39.544Z,99.99
2019-02-26T06:16:48.661Z,99.99
2019-02-26T06:17:55.917Z,99.99
2019-02-26T06:19:03.727Z,99.99
2019-02-26T06:20:11.799Z,99.99
2019-02-26T06:21:20.879Z,99.99
2019-02-26T06:22:29.583Z,99.99
2019-02-26T06:23:36.597Z,99.99
2019-02-26T06:24:44.013Z,99.99
2019-02-26T06:25:54.978Z,99.99
2019-02-26T06:27:00.147Z,99.99
2019-02-26T06:28:10.460Z,99.99
2019-02-26T06:29:19.966Z,99.99
2019-02-26T06:30:24.321Z,99.99
2019-02-26T06:31:32.356Z,99.99
2019-02-26T06:32:42.057Z,99.99
2019-02-26T06:33:50.390Z,99.99
2019-02-26T06:34:56.532Z,99.99
2019-02-26T06:36:06.348Z,99.99
2019-02-26T06:37:13.800Z,99.99
2019-02-26T06:38:20.716Z,99.99
2019-02-26T06:39:29.739Z,99.99
2019-02-26T06:40:38.863Z,99.99
2019-02-26T06:41:46.662Z,99.99
2019-02-26T06:42:52.979Z,99.99
2019-02-26T06:44:01.003Z,99.99
2019-02-26T06:45:10.770Z,99.99
2019-02-26T06:46:17.110Z,99.99
2019-02-26T06:47:26.432Z,99.99
2019-02-26T06:48:33.231Z,99.99
2019-02-26T06:49:42.812Z,99.99
2019-02-26T06:50:49.350Z,99.99
2019-02-26T06:51:57.370Z,99.99
2019-02-26T06:53:06.807Z,99.99
2019-02-26T06:54:15.412Z,99.99
2019-02-26T06:55:21.583Z,99.99
2019-02-26T06:56:30.166Z,99.99
2019-02-26T06:57:38.779Z,99.99
2019-02-26T06:58:47.417Z,99.99
2019-02-26T06:59:55.604Z,99.99
2019-02-26T07:01:01.923Z,99.99
2019-02-26T07:02:10.930Z,99.99
2019-02-26T07:03:17.997Z,99.99
2019-02-26T07:04:27.018Z,99.99
2019-02-26T07:05:34.101Z,99.99
2019-02-26T07:06:42.171Z,99.99
2019-02-26T07:07:50.224Z,99.99
2019-02-26T07:08:58.283Z,99.99
2019-02-26T07:10:06.344Z,99.99
2019-02-26T07:11:14.399Z,99.99
2019-02-26T07:12:23.971Z,99.99
2019-02-26T07:13:30.511Z,99.99
2019-02-26T07:14:38.578Z,99.99
2019-02-26T07:15:46.629Z,99.99
2019-02-26T07:16:56.501Z,99.99
2019-02-26T07:18:05.011Z,99.99
2019-02-26T07:19:12.172Z,99.99
2019-02-26T07:20:18.877Z,99.99
2019-02-26T07:21:26.940Z,99.99
2019-02-26T07:22:35.111Z,99.99
2019-02-26T07:23:43.073Z,99.99
2019-02-26T07:24:51.875Z,99.99
2019-02-26T07:25:59.178Z,99.99
2019-02-26T07:27:08.980Z,99.99
2019-02-26T07:28:17.134Z,99.99
2019-02-26T07:29:23.355Z,99.99
2019-02-26T07:30:32.576Z,99.99
2019-02-26T07:31:39.475Z,99.99
2019-02-26T07:32:48.211Z,99.99
2019-02-26T07:33:56.411Z,99.99
2019-02-26T07:35:05.878Z,99.99
2019-02-26T07:36:11.722Z,99.99
2019-02-26T07:37:19.788Z,99.99
2019-02-26T07:38:27.838Z,99.99
2019-02-26T07:39:35.913Z,99.99
2019-02-26T07:40:43.957Z,99.99
2019-02-26T07:41:53.777Z,99.99
2019-02-26T07:43:00.085Z,99.99
2019-02-26T07:44:10.021Z,99.99
2019-02-26T07:45:19.661Z,99.99
2019-02-26T07:46:24.265Z,99.99
2019-02-26T07:47:33.843Z,99.99
2019-02-26T07:48:40.400Z,99.99
2019-02-26T07:49:48.464Z,99.99
2019-02-26T07:50:56.514Z,99.99
2019-02-26T07:52:06.571Z,99.99
2019-02-26T07:53:14.392Z,99.99
2019-02-26T07:54:20.686Z,99.99
2019-02-26T07:55:30.700Z,99.99
2019-02-26T07:56:36.818Z,99.99
2019-02-26T07:57:45.497Z,99.99
2019-02-26T07:58:56.901Z,99.99
2019-02-26T08:00:01.023Z,99.99
2019-02-26T08:01:09.102Z,99.99
2019-02-26T08:02:17.152Z,99.99
2019-02-26T08:03:26.670Z,99.99
2019-02-26T08:04:34.046Z,99.99
2019-02-26T08:05:41.321Z,99.99
2019-02-26T08:06:49.375Z,99.99
2019-02-26T08:07:57.421Z,99.99
2019-02-26T08:09:07.068Z,99.99
2019-02-26T08:10:14.547Z,99.99
2019-02-26T08:11:21.629Z,99.99
2019-02-26T08:12:30.896Z,99.99
2019-02-26T08:13:37.718Z,99.99
2019-02-26T08:14:47.643Z,99.99
2019-02-26T08:15:55.065Z,99.99
2019-02-26T08:17:03.798Z,99.99
2019-02-26T08:18:10.036Z,99.99
2019-02-26T08:19:18.053Z,99.99
2019-02-26T08:20:27.883Z,99.99
2019-02-26T08:21:34.182Z,99.99
2019-02-26T08:22:42.262Z,99.99
2019-02-26T08:23:50.931Z,99.99
2019-02-26T08:24:58.360Z,99.99
2019-02-26T08:26:06.424Z,99.99
2019-02-26T08:27:14.489Z,99.99
2019-02-26T08:28:24.482Z,99.99
2019-02-26T08:29:31.190Z,99.99
2019-02-26T08:30:40.741Z,99.99
2019-02-26T08:31:46.981Z,99.99
2019-02-26T08:32:56.262Z,99.99
2019-02-26T08:34:02.861Z,99.99
2019-02-26T08:35:10.932Z,99.99
2019-02-26T08:36:18.980Z,99.99
2019-02-26T08:37:27.099Z,99.99
2019-02-26T08:38:35.128Z,99.99
2019-02-26T08:39:43.170Z,99.99
2019-02-26T08:40:51.229Z,99.99
2019-02-26T08:41:59.307Z,99.99
2019-02-26T08:43:07.342Z,99.99
2019-02-26T08:44:15.431Z,99.99
2019-02-26T08:45:25.647Z,99.99
2019-02-26T08:46:31.560Z,99.99
2019-02-26T08:47:39.603Z,99.99
2019-02-26T08:48:48.360Z,99.99
2019-02-26T08:49:55.741Z,99.99
2019-02-26T08:51:06.034Z,99.99
2019-02-26T08:52:11.866Z,99.99
2019-02-26T08:53:21.493Z,99.99
2019-02-26T08:54:28.811Z,99.99
2019-02-26T08:55:36.047Z,99.99
2019-02-26T08:56:44.110Z,99.99
2019-02-26T08:57:53.834Z,99.99
2019-02-26T08:59:00.932Z,99.99
2019-02-26T09:00:08.282Z,99.99
2019-02-26T09:01:16.359Z,99.99
2019-02-26T09:02:24.416Z,99.99
2019-02-26T09:03:40.282Z,99.99
2019-02-26T09:04:42.496Z,99.99
2019-02-26T09:05:49.344Z,99.99
2019-02-26T09:06:57.520Z,99.99
2019-02-26T09:08:05.916Z,99.99
2019-02-26T09:09:12.791Z,99.99
2019-02-26T09:10:23.122Z,99.99
2019-02-26T09:11:30.916Z,99.99
2019-02-26T09:12:38.596Z,99.99
2019-02-26T09:13:45.035Z,99.99
2019-02-26T09:14:53.100Z,99.99
2019-02-26T09:16:02.969Z,99.99
2019-02-26T09:17:09.227Z,99.99
2019-02-26T09:18:20.225Z,99.99
2019-02-26T09:19:27.275Z,99.99
2019-02-26T09:20:33.401Z,99.99
2019-02-26T09:21:42.427Z,99.99
2019-02-26T09:22:51.339Z,99.99
2019-02-26T09:23:59.484Z,99.99
2019-02-26T09:25:05.650Z,99.99
2019-02-26T09:26:13.709Z,99.99
2019-02-26T09:27:21.779Z,99.99
2019-02-26T09:28:31.550Z,99.99
2019-02-26T09:29:39.637Z,99.22
2019-02-26T09:30:46.003Z,99.99
2019-02-26T09:31:54.062Z,99.99
2019-02-26T09:33:03.304Z,99.99
2019-02-26T09:34:10.147Z,99.99
2019-02-26T09:35:19.746Z,99.22
2019-02-26T09:36:28.172Z,99.32
2019-02-26T09:37:34.351Z,99.99
2019-02-26T09:38:44.264Z,98.85
2019-02-26T09:39:51.968Z,95.32
2019-02-26T09:40:58.543Z,97.80
2019-02-26T09:42:08.617Z,99.99
2019-02-26T09:43:15.343Z,96.75
2019-02-26T09:44:23.915Z,95.94
2019-02-26T09:45:30.768Z,99.99
2019-02-26T09:46:39.365Z,93.84
2019-02-26T09:47:47.731Z,92.12
2019-02-26T09:48:54.961Z,95.65
2019-02-26T09:50:03.031Z,99.99
2019-02-26T09:51:12.179Z,95.08
2019-02-26T09:52:20.689Z,92.50
2019-02-26T09:53:27.191Z,94.22
2019-02-26T09:54:38.423Z,92.12
2019-02-26T09:55:43.343Z,89.45
2019-02-26T09:56:51.406Z,89.12
2019-02-26T09:57:59.483Z,91.12
2019-02-26T09:59:09.626Z,89.40
2019-02-26T10:00:16.923Z,86.73
2019-02-26T10:01:23.652Z,85.39
2019-02-26T10:02:31.730Z,84.63
2019-02-26T10:03:41.353Z,84.72
2019-02-26T10:04:49.498Z,90.17
2019-02-26T10:05:57.799Z,88.73
2019-02-26T10:07:04.177Z,91.78
2019-02-26T10:08:12.056Z,90.26
2019-02-26T10:09:20.688Z,88.59
2019-02-26T10:10:30.462Z,82.67
2019-02-26T10:11:36.227Z,80.57
2019-02-26T10:12:44.297Z,81.52
2019-02-26T10:13:52.343Z,79.99
2019-02-26T10:15:02.289Z,82.86
2019-02-26T10:16:08.891Z,83.91
2019-02-26T10:17:17.379Z,82.76
2019-02-26T10:18:25.546Z,86.20
2019-02-26T10:19:33.678Z,81.04
2019-02-26T10:20:42.626Z,79.94
2019-02-26T10:21:48.779Z,80.70
2019-02-26T10:22:58.383Z,79.36
2019-02-26T10:24:04.916Z,78.70
2019-02-26T10:25:15.104Z,78.70
2019-02-26T10:26:21.088Z,76.50
2019-02-26T10:27:31.797Z,76.12
2019-02-26T10:28:39.358Z,73.83
2019-02-26T10:29:47.116Z,74.11
2019-02-26T10:30:54.867Z,74.69
2019-02-26T10:32:01.368Z,74.98
2019-02-26T10:33:09.440Z,74.21
2019-02-26T10:34:18.915Z,73.83
2019-02-26T10:35:33.072Z,72.20
2019-02-26T10:36:35.912Z,72.01
2019-02-26T10:37:43.415Z,72.78
2019-02-26T10:38:50.741Z,71.34
2019-02-26T10:39:57.790Z,71.69
2019-02-26T10:41:05.893Z,73.22
2019-02-26T10:42:13.947Z,73.03
2019-02-26T10:43:22.012Z,72.07
2019-02-26T10:44:30.279Z,73.07
2019-02-26T10:45:41.504Z,70.48
2019-02-26T10:46:46.247Z,70.29
2019-02-26T10:47:56.145Z,69.43
2019-02-26T10:49:02.312Z,69.62
2019-02-26T10:50:12.370Z,69.43
2019-02-26T10:51:25.773Z,70.10
2019-02-26T10:52:28.629Z,73.10
2019-02-26T10:53:34.573Z,73.48
2019-02-26T10:54:43.488Z,70.07
2019-02-26T10:55:50.713Z,66.44
2019-02-26T10:57:00.336Z,65.11
2019-02-26T10:58:09.592Z,68.84
2019-02-26T10:59:15.761Z,65.01
2019-02-26T11:00:24.770Z,62.62
2019-02-26T11:01:33.046Z,62.81
2019-02-26T11:02:40.684Z,65.11
2019-02-26T11:03:49.132Z,63.96
2019-02-26T11:04:55.557Z,63.48
2019-02-26T11:06:04.717Z,62.43
2019-02-26T11:07:12.394Z,61.47
2019-02-26T11:08:20.752Z,61.95
2019-02-26T11:09:29.390Z,59.66
2019-02-26T11:10:39.257Z,61.85
2019-02-26T11:11:43.648Z,62.14
2019-02-26T11:12:53.435Z,60.90
2019-02-26T11:13:59.770Z,59.94
2019-02-26T11:15:09.231Z,59.37
2019-02-26T11:16:19.836Z,60.13
2019-02-26T11:17:25.966Z,60.90
2019-02-26T11:18:32.001Z,58.98
2019-02-26T11:19:41.779Z,60.04
2019-02-26T11:20:50.148Z,62.52
2019-02-26T11:21:58.177Z,59.75
2019-02-26T11:23:06.091Z,60.90
2019-02-26T11:24:12.327Z,58.83
2019-02-26T11:25:22.091Z,59.88
2019-02-26T11:26:30.068Z,58.06
2019-02-26T11:27:37.888Z,57.39
2019-02-26T11:28:45.462Z,58.22
2019-02-26T11:29:54.556Z,58.03
2019-02-26T11:31:00.725Z,57.58
2019-02-26T11:32:10.238Z,57.20
2019-02-26T11:33:16.850Z,56.62
2019-02-26T11:34:25.399Z,59.11
2019-02-26T11:35:32.975Z,54.90
2019-02-26T11:36:41.104Z,53.47
2019-02-26T11:37:50.240Z,53.75
2019-02-26T11:38:59.700Z,53.47
2019-02-26T11:40:05.496Z,55.29
2019-02-26T11:41:13.340Z,53.56
2019-02-26T11:42:23.605Z,52.70
2019-02-26T11:43:29.438Z,52.89
2019-02-26T11:44:37.478Z,52.80
2019-02-26T11:45:45.559Z,53.28
2019-02-26T11:46:54.344Z,53.56
2019-02-26T11:48:03.654Z,53.37
2019-02-26T11:49:11.762Z,56.17
2019-02-26T11:50:17.832Z,53.49
2019-02-26T11:51:25.886Z,52.73
2019-02-26T11:52:36.358Z,52.83
2019-02-26T11:53:43.440Z,52.73
2019-02-26T11:54:50.097Z,53.66
2019-02-26T11:55:59.800Z,54.90
2019-02-26T11:57:07.973Z,54.04
2019-02-26T11:58:15.867Z,52.73
2019-02-26T11:59:22.352Z,52.80
2019-02-26T12:00:32.003Z,52.32
2019-02-26T12:01:39.500Z,52.99
2019-02-26T12:02:46.544Z,52.70
2019-02-26T12:03:56.063Z,52.42
2019-02-26T12:05:03.464Z,52.42
2019-02-26T12:06:10.748Z,52.13
2019-02-26T12:07:18.809Z,53.18
2019-02-26T12:08:26.882Z,52.51
2019-02-26T12:09:37.554Z,51.56
2019-02-26T12:10:43.012Z,52.13
2019-02-26T12:11:51.066Z,51.36
2019-02-26T12:13:01.679Z,51.17
2019-02-26T12:14:08.187Z,51.46
2019-02-26T12:15:15.328Z,51.56
2019-02-26T12:16:23.331Z,50.41
2019-02-26T12:17:31.440Z,50.02
2019-02-26T12:18:41.020Z,50.31
2019-02-26T12:19:48.560Z,50.21
2019-02-26T12:20:55.590Z,51.20
2019-02-26T12:22:05.378Z,51.10
2019-02-26T12:23:13.408Z,51.20
2019-02-26T12:24:19.799Z,52.06
2019-02-26T12:25:27.821Z,51.01
2019-02-26T12:26:35.921Z,50.26
2019-02-26T12:27:45.565Z,49.60
2019-02-26T12:28:52.808Z,48.44
2019-02-26T12:30:00.148Z,46.91
2019-02-26T12:31:09.983Z,46.91
2019-02-26T12:32:17.069Z,47.30
2019-02-26T12:33:24.320Z,47.20
2019-02-26T12:34:32.393Z,46.55
2019-02-26T12:35:40.705Z,47.20
2019-02-26T12:36:51.084Z,48.35
2019-02-26T12:37:59.325Z,48.07
2019-02-26T12:39:04.637Z,49.02
2019-02-26T12:40:13.715Z,46.26
2019-02-26T12:41:21.003Z,46.62
2019-02-26T12:42:28.864Z,45.57
2019-02-26T12:43:40.093Z,45.19
2019-02-26T12:44:45.375Z,46.25
2019-02-26T12:45:55.912Z,48.07
2019-02-26T12:47:01.133Z,45.67
2019-02-26T12:48:10.087Z,45.09
2019-02-26T12:49:18.038Z,45.96
2019-02-26T12:50:27.126Z,46.53
2019-02-26T12:51:35.393Z,45.96
2019-02-26T12:52:42.210Z,45.86
2019-02-26T12:53:50.123Z,46.05
2019-02-26T12:54:57.701Z,45.19
2019-02-26T12:56:06.833Z,45.38
2019-02-26T12:57:15.766Z,46.62
2019-02-26T12:58:24.261Z,45.96
2019-02-26T12:59:29.832Z,45.40
2019-02-26T13:00:40.646Z,43.87
2019-02-26T13:01:46.799Z,43.68
2019-02-26T13:02:54.029Z,42.44
2019-02-26T13:04:02.085Z,42.82
2019-02-26T13:05:11.398Z,43.77
2019-02-26T13:06:19.364Z,43.30
2019-02-26T13:07:26.306Z,41.17
2019-02-26T13:08:36.105Z,39.06
2019-02-26T13:09:47.765Z,40.41
2019-02-26T13:12:02.270Z,41.36
2019-02-26T13:13:07.485Z,41.65
2019-02-26T13:14:14.695Z,40.23
2019-02-26T13:15:22.740Z,39.37
2019-02-26T13:16:30.815Z,40.90
2019-02-26T13:17:38.882Z,40.42
2019-02-26T13:18:47.842Z,39.85
2019-02-26T13:19:58.759Z,40.23
2019-02-26T13:21:08.091Z,38.60
2019-02-26T13:22:13.562Z,38.89
2019-02-26T13:23:20.501Z,38.89
2019-02-26T13:24:27.376Z,40.52
2019-02-26T13:25:35.344Z,40.33
2019-02-26T13:26:47.079Z,40.52
2019-02-26T13:27:51.486Z,39.94
2019-02-26T13:29:00.519Z,38.79
2019-02-26T13:30:07.617Z,38.53
2019-02-26T13:31:18.901Z,40.14
2019-02-26T13:32:25.945Z,39.10
2019-02-26T13:33:35.047Z,40.33
2019-02-26T13:34:39.859Z,40.92
2019-02-26T13:35:52.082Z,39.77
2019-02-26T13:36:56.745Z,40.16
2019-02-26T13:38:04.052Z,39.68
2019-02-26T13:39:12.134Z,39.58
2019-02-26T13:40:20.184Z,39.58
2019-02-26T13:41:29.764Z,38.72
2019-02-26T13:42:36.331Z,40.35
2019-02-26T13:43:44.401Z,38.62
2019-02-26T13:44:52.472Z,37.95
2019-02-26T13:46:00.520Z,38.53
2019-02-26T13:47:08.591Z,38.74
2019-02-26T13:48:16.677Z,38.72
2019-02-26T13:49:24.716Z,38.72
2019-02-26T13:50:32.780Z,38.62
2019-02-26T13:51:40.867Z,38.53
2019-02-26T13:52:48.924Z,38.93
2019-02-26T13:53:56.991Z,38.54
2019-02-26T13:55:05.058Z,38.16
2019-02-26T13:56:13.115Z,37.97
2019-02-26T13:57:21.199Z,37.11
2019-02-26T13:58:29.263Z,38.26
2019-02-26T13:59:37.344Z,37.30
2019-02-26T14:00:45.393Z,36.91
2019-02-26T14:01:53.458Z,37.57
2019-02-26T14:03:01.532Z,38.14
2019-02-26T14:04:09.579Z,38.62
2019-02-26T14:05:17.625Z,39.31
2019-02-26T14:06:25.721Z,38.45
2019-02-26T14:07:34.816Z,37.87
2019-02-26T14:08:41.891Z,36.82
2019-02-26T14:09:49.921Z,36.24
2019-02-26T14:10:57.962Z,37.49
2019-02-26T14:12:06.053Z,38.83
2019-02-26T14:13:14.127Z,38.74
2019-02-26T14:14:22.193Z,37.68
2019-02-26T14:15:30.248Z,35.19
2019-02-26T14:16:38.321Z,36.34
2019-02-26T14:17:46.384Z,37.38
2019-02-26T14:18:54.465Z,37.40
2019-02-26T14:20:02.518Z,36.44
2019-02-26T14:21:10.580Z,35.86
2019-02-26T14:22:18.654Z,35.94
2019-02-26T14:23:26.707Z,36.99
2019-02-26T14:24:34.835Z,36.24
2019-02-26T14:25:42.856Z,36.71
2019-02-26T14:26:50.906Z,36.15
2019-02-26T14:27:58.993Z,36.42
2019-02-26T14:29:07.044Z,35.94
2019-02-26T14:30:15.119Z,36.90
2019-02-26T14:31:23.196Z,36.80
2019-02-26T14:32:31.245Z,39.29
2019-02-26T14:33:39.332Z,38.53
2019-02-26T14:34:47.351Z,37.85
2019-02-26T14:35:55.454Z,37.95
2019-02-26T14:37:03.526Z,38.34